createdAt,value
2018-07-09T00:00:04.735Z,93.20
2018-07-09T00:02:33.210Z,93.00
2018-07-09T00:05:01.694Z,92.70
2018-07-09T00:07:30.146Z,92.50
2018-07-09T00:09:58.630Z,92.30
2018-07-09T00:12:27.206Z,92.10
2018-07-09T00:14:55.657Z,91.90
2018-07-09T00:17:24.099Z,91.50
2018-07-09T00:19:52.631Z,91.10
2018-07-09T00:22:21.101Z,90.90
2018-07-09T00:24:49.542Z,90.70
2018-07-09T00:27:18.075Z,90.70
2018-07-09T00:29:46.553Z,90.60
2018-07-09T00:32:15.044Z,90.70
2018-07-09T00:34:43.557Z,90.50
2018-07-09T00:37:11.998Z,90.50
2018-07-09T00:39:40.522Z,90.50
2018-07-09T00:42:09.079Z,90.40
2018-07-09T00:44:37.575Z,90.30
2018-07-09T00:49:34.305Z,90.20
2018-07-09T00:52:02.754Z,90.20
2018-07-09T00:54:31.402Z,90.10
2018-07-09T00:56:59.937Z,90.00
2018-07-09T00:59:28.406Z,89.50
2018-07-09T01:01:56.998Z,88.80
2018-07-09T01:04:25.555Z,88.30
2018-07-09T01:06:54.134Z,88.00
2018-07-09T01:09:22.602Z,87.60
2018-07-09T01:12:01.094Z,87.30
2018-07-09T01:14:29.843Z,87.20
2018-07-09T01:16:58.370Z,87.00
2018-07-09T01:19:26.961Z,86.80
2018-07-09T01:21:55.455Z,86.90
2018-07-09T01:24:23.922Z,86.80
2018-07-09T01:26:52.442Z,86.70
2018-07-09T01:29:21.009Z,86.60
2018-07-09T01:31:49.438Z,86.50
2018-07-09T01:34:17.954Z,86.20
2018-07-09T01:36:46.412Z,86.00
2018-07-09T01:39:14.918Z,86.00
2018-07-09T01:41:43.448Z,86.00
2018-07-09T01:46:40.242Z,86.40
2018-07-09T01:49:08.709Z,86.50
2018-07-09T01:51:37.234Z,86.50
2018-07-09T01:54:05.814Z,86.60
2018-07-09T01:56:34.278Z,86.60
2018-07-09T01:59:02.722Z,86.60
2018-07-09T02:01:31.256Z,86.90
2018-07-09T02:03:59.730Z,87.10
2018-07-09T02:06:28.150Z,87.40
2018-07-09T02:08:56.611Z,87.80
2018-07-09T02:11:25.133Z,88.00
2018-07-09T02:13:53.547Z,88.20
2018-07-09T02:16:21.963Z,88.50
2018-07-09T02:18:50.410Z,89.00
2018-07-09T02:21:18.886Z,89.30
2018-07-09T02:23:47.330Z,89.90
2018-07-09T02:26:15.814Z,90.10
2018-07-09T02:28:44.352Z,90.20
2018-07-09T02:31:12.812Z,90.50
2018-07-09T02:33:41.270Z,90.70
2018-07-09T02:36:09.687Z,90.90
2018-07-09T02:38:38.228Z,91.10
2018-07-09T02:41:06.811Z,91.30
2018-07-09T02:58:03.611Z,91.90
2018-07-09T03:00:32.193Z,91.90
2018-07-09T03:03:00.671Z,91.90
2018-07-09T03:05:29.160Z,91.90
2018-07-09T03:07:57.698Z,92.00
2018-07-09T03:10:26.176Z,92.00
2018-07-09T03:12:54.874Z,92.00
2018-07-09T03:15:23.470Z,92.00
2018-07-09T03:17:51.914Z,92.10
2018-07-09T03:20:22.141Z,92.10
2018-07-09T03:22:50.606Z,92.20
2018-07-09T03:25:19.063Z,92.20
2018-07-09T03:27:47.550Z,92.20
2018-07-09T03:30:15.998Z,92.20
2018-07-09T03:32:44.449Z,92.30
2018-07-09T03:35:13.022Z,92.30
2018-07-09T03:37:41.470Z,92.40
2018-07-09T03:40:10.046Z,92.60
2018-07-09T03:42:38.737Z,92.80
2018-07-09T03:45:07.215Z,92.90
2018-07-09T03:47:35.722Z,93.00
2018-07-09T03:50:04.247Z,93.10
2018-07-09T03:52:32.742Z,93.20
2018-07-09T03:55:01.367Z,93.20
2018-07-09T03:57:29.915Z,93.20
2018-07-09T03:59:58.385Z,93.20
2018-07-09T04:02:26.852Z,93.10
2018-07-09T04:04:55.314Z,93.00
2018-07-09T04:07:23.806Z,93.00
2018-07-09T04:09:52.306Z,93.00
2018-07-09T04:12:20.855Z,92.90
2018-07-09T04:14:49.318Z,93.00
2018-07-09T04:17:17.834Z,92.80
2018-07-09T04:19:46.321Z,92.80
2018-07-09T04:22:14.938Z,92.80
2018-07-09T04:24:43.435Z,92.60
2018-07-09T04:27:11.894Z,92.40
2018-07-09T04:29:40.366Z,92.40
2018-07-09T04:32:08.873Z,92.20
2018-07-09T04:34:37.360Z,92.50
2018-07-09T04:37:05.853Z,92.20
2018-07-09T04:39:34.354Z,92.30
2018-07-09T04:42:02.809Z,92.40
2018-07-09T04:44:31.258Z,92.50
2018-07-09T04:46:59.773Z,92.60
2018-07-09T04:49:28.268Z,92.70
2018-07-09T04:51:56.836Z,92.80
2018-07-09T04:54:25.324Z,92.80
2018-07-09T04:56:54.054Z,92.90
2018-07-09T04:59:22.498Z,93.00
2018-07-09T05:01:51.017Z,93.00
2018-07-09T05:04:19.478Z,93.00
2018-07-09T05:06:48.249Z,93.10
2018-07-09T05:09:16.797Z,93.20
2018-07-09T05:11:45.242Z,93.20
2018-07-09T05:14:13.741Z,93.30
2018-07-09T05:16:42.194Z,93.00
2018-07-09T05:19:10.641Z,93.10
2018-07-09T05:21:39.118Z,93.00
2018-07-09T05:24:07.621Z,92.70
2018-07-09T05:26:36.062Z,92.30
2018-07-09T05:29:04.610Z,91.70
2018-07-09T05:31:33.178Z,91.20
2018-07-09T05:34:01.602Z,90.90
2018-07-09T05:36:30.051Z,90.50
2018-07-09T05:38:58.592Z,90.00
2018-07-09T05:41:27.072Z,89.30
2018-07-09T05:43:55.598Z,89.10
2018-07-09T05:46:24.110Z,89.00
2018-07-09T05:48:52.614Z,88.40
2018-07-09T05:51:21.066Z,87.60
2018-07-09T05:53:49.581Z,86.70
2018-07-09T05:56:18.680Z,85.60
2018-07-09T05:58:47.193Z,85.80
2018-07-09T06:01:15.742Z,86.30
2018-07-09T06:03:44.310Z,86.30
2018-07-09T06:06:12.829Z,86.30
2018-07-09T06:08:41.322Z,85.80
2018-07-09T06:11:09.880Z,86.20
2018-07-09T06:13:38.498Z,86.00
2018-07-09T06:16:07.031Z,85.90
2018-07-09T06:18:35.487Z,84.70
2018-07-09T06:21:04.015Z,84.10
2018-07-09T06:23:32.550Z,83.90
2018-07-09T06:26:00.997Z,82.80
2018-07-09T06:28:29.550Z,81.50
2018-07-09T06:33:26.236Z,81.40
2018-07-09T06:35:54.687Z,81.20
2018-07-09T06:38:23.275Z,81.20
2018-07-09T06:40:51.774Z,81.60
2018-07-09T06:45:48.497Z,79.00
2018-07-09T06:48:17.027Z,78.20
2018-07-09T06:50:45.485Z,77.80
2018-07-09T06:53:14.014Z,77.30
2018-07-09T06:55:42.554Z,77.60
2018-07-09T06:58:11.014Z,77.40
2018-07-09T07:00:39.810Z,76.60
2018-07-09T07:03:08.299Z,75.40
2018-07-09T07:05:36.790Z,74.50
2018-07-09T07:08:05.399Z,74.50
2018-07-09T07:10:33.846Z,74.50
2018-07-09T07:13:02.323Z,74.20
2018-07-09T07:15:30.915Z,73.20
2018-07-09T07:17:59.366Z,73.50
2018-07-09T07:20:27.835Z,73.90
2018-07-09T07:22:56.365Z,75.00
2018-07-09T07:25:24.825Z,74.80
2018-07-09T07:27:53.485Z,73.30
2018-07-09T07:30:22.003Z,74.10
2018-07-09T07:32:50.482Z,74.30
2018-07-09T07:35:19.335Z,74.90
2018-07-09T07:37:47.862Z,75.00
2018-07-09T07:40:16.333Z,75.00
2018-07-09T07:42:44.824Z,75.40
2018-07-09T07:45:13.358Z,75.10
2018-07-09T07:50:09.983Z,75.70
2018-07-09T07:52:38.505Z,75.60
2018-07-09T07:55:07.035Z,75.70
2018-07-09T07:57:35.507Z,76.10
2018-07-09T08:00:04.287Z,76.60
2018-07-09T08:02:32.828Z,76.60
2018-07-09T08:05:01.688Z,76.40
2018-07-09T08:07:30.166Z,76.20
2018-07-09T08:09:58.598Z,75.50
2018-07-09T08:17:23.937Z,77.30
2018-07-09T08:19:52.391Z,77.00
2018-07-09T08:22:20.945Z,77.70
2018-07-09T08:24:49.449Z,78.90
2018-07-09T08:27:18.190Z,79.10
2018-07-09T08:29:46.771Z,80.20
2018-07-09T08:32:15.278Z,81.50
2018-07-09T08:34:43.811Z,82.20
2018-07-09T08:37:12.574Z,82.00
2018-07-09T08:39:41.038Z,81.60
2018-07-09T08:42:09.738Z,81.50
2018-07-09T08:44:40.106Z,81.70
2018-07-09T08:47:08.594Z,81.80
2018-07-09T08:49:37.045Z,81.80
2018-07-09T08:52:05.554Z,82.80
2018-07-09T08:54:34.034Z,82.20
2018-07-09T08:57:02.922Z,82.20
2018-07-09T08:59:31.462Z,82.50
2018-07-09T09:01:59.922Z,82.50
2018-07-09T09:06:57.244Z,82.70
2018-07-09T09:09:25.727Z,82.40
2018-07-09T09:11:54.237Z,82.20
2018-07-09T09:14:22.996Z,82.10
2018-07-09T09:16:51.518Z,81.80
2018-07-09T09:19:19.955Z,81.70
2018-07-09T09:21:48.478Z,81.40
2018-07-09T09:24:17.602Z,81.50
2018-07-09T09:26:46.066Z,81.70
2018-07-09T09:29:14.605Z,81.20
2018-07-09T09:31:43.114Z,81.10
2018-07-09T09:34:11.638Z,81.00
2018-07-09T09:36:40.307Z,81.00
2018-07-09T09:41:37.710Z,79.00
2018-07-09T09:44:06.238Z,78.10
2018-07-09T09:46:34.802Z,77.70
2018-07-09T09:49:03.290Z,77.60
2018-07-09T09:51:31.832Z,76.30
2018-07-09T09:54:00.302Z,75.50
2018-07-09T09:56:28.895Z,75.10
2018-07-09T09:58:57.369Z,73.70
2018-07-09T10:01:25.845Z,72.90
2018-07-09T10:03:54.302Z,71.60
2018-07-09T10:06:22.835Z,70.50
2018-07-09T10:08:51.408Z,69.70
2018-07-09T10:11:19.854Z,69.00
2018-07-09T10:13:48.978Z,67.70
2018-07-09T10:16:17.429Z,68.00
2018-07-09T10:18:45.898Z,67.60
2018-07-09T10:21:14.422Z,66.80
2018-07-09T10:23:42.903Z,65.80
2018-07-09T10:26:11.363Z,64.80
2018-07-09T10:28:39.855Z,65.60
2018-07-09T10:31:08.311Z,64.60
2018-07-09T10:33:36.770Z,63.80
2018-07-09T10:36:05.547Z,63.40
2018-07-09T10:38:33.967Z,62.00
2018-07-09T10:41:02.410Z,61.90
2018-07-09T10:43:30.890Z,62.40
2018-07-09T10:45:59.333Z,61.90
2018-07-09T10:48:27.794Z,62.30
2018-07-09T10:50:56.332Z,62.20
2018-07-09T10:53:24.813Z,62.30
2018-07-09T10:55:53.406Z,62.30
2018-07-09T11:00:50.128Z,62.00
2018-07-09T11:03:18.602Z,61.40
2018-07-09T11:05:47.298Z,61.50
2018-07-09T11:08:15.896Z,60.50
2018-07-09T11:10:44.635Z,60.90
2018-07-09T11:13:13.191Z,60.60
2018-07-09T11:15:41.679Z,59.80
2018-07-09T11:18:10.162Z,59.00
2018-07-09T11:20:38.676Z,58.70
2018-07-09T11:23:07.269Z,59.20
2018-07-09T11:25:35.819Z,58.60
2018-07-09T11:28:04.414Z,58.80
2018-07-09T11:30:32.907Z,57.90
2018-07-09T11:33:01.362Z,57.70
2018-07-09T11:35:29.917Z,56.30
2018-07-09T11:37:58.359Z,55.60
2018-07-09T11:40:26.829Z,55.70
2018-07-09T11:42:55.338Z,55.50
2018-07-09T11:45:23.825Z,55.60
2018-07-09T11:47:52.362Z,55.40
2018-07-09T11:50:20.895Z,56.00
2018-07-09T11:52:49.341Z,55.90
2018-07-09T11:55:17.789Z,55.10
2018-07-09T11:57:46.331Z,54.80
2018-07-09T12:00:14.857Z,53.80
2018-07-09T12:02:43.294Z,53.50
2018-07-09T12:05:11.883Z,52.30
2018-07-09T12:07:40.345Z,52.50
2018-07-09T12:10:08.850Z,52.50
2018-07-09T12:12:37.378Z,52.80
2018-07-09T12:15:05.862Z,52.10
2018-07-09T12:17:34.338Z,52.30
2018-07-09T12:20:02.850Z,53.20
2018-07-09T12:22:31.324Z,53.60
2018-07-09T12:24:59.893Z,53.00
2018-07-09T12:27:28.426Z,52.50
2018-07-09T12:29:56.902Z,53.20
2018-07-09T12:32:25.357Z,53.80
2018-07-09T12:34:53.917Z,54.20
2018-07-09T12:37:22.382Z,54.70
2018-07-09T12:39:50.855Z,53.00
2018-07-09T12:42:19.361Z,53.00
2018-07-09T12:44:47.939Z,53.40
2018-07-09T12:47:16.474Z,52.60
2018-07-09T12:49:45.157Z,51.50
2018-07-09T12:52:13.621Z,51.20
2018-07-09T12:54:42.117Z,51.50
2018-07-09T12:57:10.803Z,52.00
2018-07-09T12:59:39.314Z,52.20
2018-07-09T13:02:07.758Z,52.10
2018-07-09T13:04:36.813Z,51.30
2018-07-09T13:07:05.381Z,50.80
2018-07-09T13:09:33.851Z,50.90
2018-07-09T13:12:02.367Z,50.80
2018-07-09T13:14:30.866Z,50.30
2018-07-09T13:16:59.406Z,49.30
2018-07-09T13:19:28.044Z,49.40
2018-07-09T13:21:56.590Z,48.90
2018-07-09T13:24:25.034Z,49.00
2018-07-09T13:26:53.545Z,48.50
2018-07-09T13:29:22.069Z,48.90
2018-07-09T13:31:50.579Z,49.10
2018-07-09T13:34:19.134Z,49.90
2018-07-09T13:36:47.742Z,49.50
2018-07-09T13:39:16.565Z,47.80
2018-07-09T13:44:13.214Z,47.10
2018-07-09T13:46:41.741Z,45.30
2018-07-09T13:49:10.221Z,44.70
2018-07-09T13:51:38.715Z,43.80
2018-07-09T13:54:07.194Z,43.50
2018-07-09T13:56:35.679Z,43.80
2018-07-09T13:59:04.159Z,43.20
2018-07-09T14:01:32.596Z,43.30
2018-07-09T14:04:01.124Z,43.00
2018-07-09T14:06:29.578Z,42.10
2018-07-09T14:08:58.019Z,42.40
2018-07-09T14:11:26.518Z,42.50
2018-07-09T14:13:55.099Z,44.10
2018-07-09T14:16:23.562Z,43.50
2018-07-09T14:18:52.108Z,42.80
2018-07-09T14:21:20.568Z,42.90
2018-07-09T14:26:17.318Z,43.60
2018-07-09T14:28:45.817Z,44.30
2018-07-09T14:31:14.281Z,44.60
2018-07-09T14:33:42.802Z,45.40
2018-07-09T14:36:11.385Z,44.90
2018-07-09T14:38:39.936Z,45.10
2018-07-09T14:41:08.449Z,44.40
2018-07-09T14:43:36.905Z,44.50
2018-07-09T14:46:06.253Z,45.00
2018-07-09T14:48:34.766Z,45.00
2018-07-09T14:51:03.308Z,45.40
2018-07-09T14:53:31.754Z,45.20
2018-07-09T14:56:00.278Z,45.30
2018-07-09T14:58:28.762Z,45.70
2018-07-09T15:00:57.355Z,45.50
2018-07-09T15:03:25.980Z,44.20
2018-07-09T15:05:54.546Z,45.00
2018-07-09T15:08:23.011Z,45.00
2018-07-09T15:10:51.582Z,45.10
2018-07-09T15:15:48.309Z,43.70
2018-07-09T15:18:16.938Z,44.10
2018-07-09T15:20:45.482Z,43.60
2018-07-09T15:23:13.976Z,44.40
2018-07-09T15:25:42.565Z,44.30
2018-07-09T15:28:11.013Z,43.80
2018-07-09T15:30:39.454Z,43.20
2018-07-09T15:33:07.930Z,43.80
2018-07-09T15:35:36.415Z,42.50
2018-07-09T15:38:04.888Z,42.50
2018-07-09T15:40:33.527Z,42.90
2018-07-09T15:43:01.990Z,41.90
2018-07-09T15:45:30.502Z,41.50
2018-07-09T15:47:59.030Z,41.10
2018-07-09T15:50:27.517Z,41.30
2018-07-09T15:52:55.962Z,41.10
2018-07-09T15:55:24.563Z,41.30
2018-07-09T16:00:21.146Z,39.40
2018-07-09T16:02:49.738Z,38.40
2018-07-09T16:05:18.215Z,37.90
2018-07-09T16:07:46.674Z,37.80
2018-07-09T16:10:15.290Z,37.90
2018-07-09T16:12:43.929Z,37.70
2018-07-09T16:15:12.360Z,37.00
2018-07-09T16:17:41.566Z,35.90
2018-07-09T16:20:10.086Z,34.70
2018-07-09T16:22:38.539Z,33.90
2018-07-09T16:25:07.033Z,34.40
2018-07-09T16:27:35.482Z,33.80
2018-07-09T16:30:03.982Z,34.00
2018-07-09T16:32:32.579Z,34.60
2018-07-09T16:35:01.238Z,35.10
2018-07-09T16:37:29.703Z,35.30
2018-07-09T16:39:58.165Z,35.00
2018-07-09T16:42:26.753Z,34.90
2018-07-09T16:44:55.179Z,35.60
2018-07-09T16:47:23.650Z,36.20
2018-07-09T16:49:52.179Z,35.80
2018-07-09T16:52:20.628Z,35.40
2018-07-09T16:54:49.197Z,34.30
2018-07-09T16:57:17.710Z,33.70
2018-07-09T16:59:46.203Z,33.50
2018-07-09T17:02:14.696Z,33.50
2018-07-09T17:04:43.207Z,32.80
2018-07-09T17:07:11.647Z,32.90
2018-07-09T17:09:40.185Z,32.70
2018-07-09T17:12:08.653Z,32.10
2018-07-09T17:14:37.145Z,32.20
2018-07-09T17:17:05.689Z,32.20
2018-07-09T17:19:34.287Z,32.20
2018-07-09T17:22:02.899Z,32.10
2018-07-09T17:24:31.943Z,32.60
2018-07-09T17:27:00.750Z,32.90
2018-07-09T17:29:29.757Z,33.50
2018-07-09T17:31:58.197Z,34.80
2018-07-09T17:34:26.670Z,36.80
2018-07-09T17:36:55.253Z,38.70
2018-07-09T17:39:23.738Z,40.50
2018-07-09T17:41:52.380Z,41.90
2018-07-09T17:44:21.134Z,43.50
2018-07-09T17:46:49.589Z,44.40
2018-07-09T17:49:18.071Z,45.10
2018-07-09T17:54:14.870Z,43.80
2018-07-09T17:56:43.334Z,43.60
2018-07-09T18:01:39.910Z,44.50
2018-07-09T18:04:08.385Z,44.70
2018-07-09T18:06:36.877Z,44.90
2018-07-09T18:09:06.051Z,45.50
2018-07-09T18:16:31.126Z,46.40
2018-07-09T18:18:59.584Z,46.60
2018-07-09T18:21:28.129Z,46.50
2018-07-09T18:23:56.565Z,47.10
2018-07-09T18:26:25.137Z,46.80
2018-07-09T18:28:53.693Z,46.90
2018-07-09T18:31:22.370Z,47.90
2018-07-09T18:33:50.834Z,47.90
2018-07-09T18:36:19.589Z,48.30
2018-07-09T18:38:48.181Z,48.10
2018-07-09T18:41:16.566Z,48.40
2018-07-09T18:43:45.137Z,49.20
2018-07-09T18:46:13.591Z,48.90
2018-07-09T18:48:42.253Z,48.90
2018-07-09T18:51:10.852Z,49.00
2018-07-09T18:53:39.481Z,49.40
2018-07-09T18:56:08.135Z,49.70
2018-07-09T18:58:36.772Z,49.90
2018-07-09T19:01:05.253Z,50.30
2018-07-09T19:03:33.779Z,50.70
2018-07-09T19:06:12.275Z,50.80
2018-07-09T19:08:40.798Z,50.70
2018-07-09T19:11:09.268Z,50.90
2018-07-09T19:13:38.831Z,51.20
2018-07-09T19:16:07.912Z,51.40
2018-07-09T19:18:47.600Z,51.70
2018-07-09T19:22:29.860Z,51.90
2018-07-09T19:24:57.208Z,52.20
2018-07-09T19:27:24.521Z,52.40
2018-07-09T19:29:51.833Z,52.60
2018-07-09T19:32:20.623Z,52.90
2018-07-09T19:34:47.946Z,53.10
2018-07-09T19:37:15.349Z,53.30
2018-07-09T19:39:42.761Z,53.50
2018-07-09T19:42:10.142Z,53.90
2018-07-09T19:44:37.666Z,54.10
2018-07-09T19:47:05.014Z,54.20
2018-07-09T19:49:32.328Z,54.40
2018-07-09T19:51:59.658Z,54.60
2018-07-09T19:54:27.026Z,54.70
2018-07-09T19:56:54.336Z,54.70
2018-07-09T19:59:21.654Z,54.90
2018-07-09T20:01:48.986Z,55.10
2018-07-09T20:04:16.290Z,55.40
2018-07-09T20:06:43.683Z,55.80
2018-07-09T20:09:16.284Z,56.20
2018-07-09T20:11:58.767Z,56.30
2018-07-09T20:14:31.447Z,56.40
2018-07-09T20:17:04.048Z,56.70
2018-07-09T20:19:31.607Z,56.90
2018-07-09T20:21:59.095Z,57.10
2018-07-09T20:24:26.412Z,57.40
2018-07-09T20:26:53.921Z,57.40
2018-07-09T20:29:21.367Z,57.70
2018-07-09T20:31:48.707Z,58.30
2018-07-09T20:34:16.047Z,58.50
2018-07-09T20:36:43.430Z,58.80
2018-07-09T20:39:10.730Z,59.20
2018-07-09T20:41:38.030Z,59.60
2018-07-09T20:44:05.382Z,59.90
2018-07-09T20:46:32.715Z,60.80
2018-07-09T20:49:00.042Z,60.30
2018-07-09T20:51:27.364Z,60.60
2018-07-09T20:53:54.662Z,61.10
2018-07-09T20:56:21.965Z,61.40
2018-07-09T20:58:49.525Z,61.40
2018-07-09T21:01:16.839Z,61.50
2018-07-09T21:03:44.153Z,61.90
2018-07-09T21:06:11.498Z,61.90
2018-07-09T21:08:38.874Z,61.90
2018-07-09T21:11:06.176Z,61.80
2018-07-09T21:13:33.514Z,62.00
2018-07-09T21:16:01.164Z,62.00
2018-07-09T21:18:28.261Z,62.00
2018-07-09T21:20:55.630Z,62.00
2018-07-09T21:23:22.932Z,62.30
2018-07-09T21:25:50.242Z,62.60
2018-07-09T21:28:17.585Z,62.60
2018-07-09T21:30:44.890Z,62.90
2018-07-09T21:33:12.202Z,63.10
2018-07-09T21:38:07.163Z,63.20
2018-07-09T21:43:02.047Z,63.60
2018-07-09T21:45:29.360Z,63.80
2018-07-09T21:47:59.209Z,63.80
2018-07-09T21:50:24.011Z,63.70
2018-07-09T21:52:51.334Z,64.10
2018-07-09T21:55:18.640Z,63.20
2018-07-09T21:57:45.999Z,62.80
2018-07-09T22:00:13.319Z,62.40
2018-07-09T22:02:40.646Z,62.20
2018-07-09T22:05:07.967Z,62.10
2018-07-09T22:07:35.388Z,61.60
2018-07-09T22:10:02.630Z,61.60
2018-07-09T22:12:30.050Z,61.50
2018-07-09T22:14:57.346Z,61.50
2018-07-09T22:17:24.658Z,61.50
2018-07-09T22:19:52.030Z,61.50
2018-07-09T22:22:19.337Z,62.00
2018-07-09T22:24:46.668Z,62.20
2018-07-09T22:27:14.014Z,62.40
2018-07-09T22:29:41.342Z,62.70
2018-07-09T22:32:09.840Z,62.80
2018-07-09T22:34:38.301Z,63.20
2018-07-09T22:37:06.743Z,63.30
2018-07-09T22:39:35.223Z,63.90
2018-07-09T22:42:03.834Z,65.20
2018-07-09T22:44:32.314Z,64.60
2018-07-09T22:47:00.792Z,65.10
2018-07-09T22:49:29.305Z,65.30
2018-07-09T22:51:58.314Z,65.50
2018-07-09T22:54:26.841Z,65.60
2018-07-09T22:56:55.448Z,66.10
2018-07-09T22:59:23.894Z,66.30
2018-07-09T23:01:52.366Z,66.30
2018-07-09T23:04:21.121Z,66.50
2018-07-09T23:06:49.606Z,66.50
2018-07-09T23:10:27.402Z,66.40
2018-07-09T23:13:22.273Z,66.20
2018-07-09T23:16:02.022Z,66.40
2018-07-09T23:18:41.696Z,66.60
2018-07-09T23:22:23.240Z,66.70
2018-07-09T23:24:50.652Z,67.20
2018-07-09T23:27:17.959Z,67.60
2018-07-09T23:29:45.294Z,67.70
2018-07-09T23:32:12.598Z,68.10
2018-07-09T23:37:07.598Z,68.30
2018-07-09T23:39:34.894Z,69.80
2018-07-09T23:42:02.239Z,69.70
2018-07-09T23:44:29.574Z,70.10
2018-07-09T23:46:56.878Z,70.20
2018-07-09T23:49:24.187Z,71.10
2018-07-09T23:51:51.598Z,70.60
2018-07-09T23:54:18.912Z,70.60
2018-07-09T23:57:10.515Z,70.50
2018-07-09T23:59:51.100Z,70.60
